• Join FlightAware (Why Join?)
  • Login
  • US Flag 
09:37AM EDT


 

Airport Tracker/Info


-or-


 

Live Flight TrackerFlight Track Log ✈ N589H ✈ 06-Mar-2014 ✈ KCLT - KPIE

Flight Track Log - Related Links

Times and Time Zones

All times are in EST time to prevent confusion due to time zone crossing. See the N589H flight status page for this flight to view local times or setup timezone preferences in your user account.

Time Position Orientation Groundspeed Altitude Reporting Facility
EST Latitude Longitude Course Direction KTS MPH feet Rate Location/Type
04:34AM 35.2306 -80.9392 North 142 163 1,700  Level Atlanta Center
04:35AM 35.2314 -80.8883 89° East 159 183 3,700 1,680 Climbing Atlanta Center
04:36AM 35.2172 -80.8306 107° East 187 215 5,200 1,620 Climbing Atlanta Center
04:36AM 35.2003 -80.8133 140° Southeast 189 217 5,900 2,700 Climbing Atlanta Center
04:37AM 35.1731 -80.8169 186° South 183 211 7,900 2,580 Climbing Atlanta Center
04:37AM 35.1503 -80.8228 192° South 178 205 8,500 1,260 Climbing Atlanta Center
04:38AM 35.0967 -80.8453 199° South 214 246 9,600 1,260 Climbing Atlanta Center
04:39AM 35.0306 -80.8681 196° South 238 274 11,100 1,500 Climbing Atlanta Center
04:40AM 34.9664 -80.8858 193° South 243 280 12,700 1,560 Climbing Atlanta Center
04:42AM 34.8347 -80.9172 191° South 235 270 15,800 1,560 Climbing Jacksonville Center
04:43AM 34.7683 -80.9414 197° South 242 278 17,400 1,440 Climbing Jacksonville Center
04:44AM 34.7039 -80.9506 187° South 242 278 18,700 1,380 Climbing Jacksonville Center
04:45AM 34.6356 -80.9800 200° South 242 278 20,200 1,500 Climbing Jacksonville Center
04:46AM 34.5669 -80.9964 191° South 242 278 21,800 1,380 Climbing Jacksonville Center
04:47AM 34.5150 -81.0103 192° South 242 278 23,000 1,380 Climbing Jacksonville Center
04:48AM 34.4486 -81.0269 192° South 242 278 24,600 1,500 Climbing Jacksonville Center
04:49AM 34.3800 -81.0458 193° South 237 273 26,000 660 Climbing Jacksonville Center
04:50AM 34.3094 -81.0650 193° South 243 280 26,000  Level Jacksonville Center
04:51AM 34.2303 -81.0867 193° South 271 312 26,000  Level Jacksonville Center
04:52AM 34.1472 -81.1086 192° South 297 342 26,000  Level Jacksonville Center
04:53AM 34.0494 -81.1356 193° South 323 372 26,000  Level Jacksonville Center
04:54AM 33.9808 -81.1544 193° South 329 379 26,000  Level Jacksonville Center
04:55AM 33.8769 -81.1817 192° South 329 379 26,000  Level Jacksonville Center
04:56AM 33.7875 -81.2058 193° South 324 373 26,000  Level Jacksonville Center
04:57AM 33.7106 -81.2272 193° South 329 379 26,000  Level Jacksonville Center
04:58AM 33.6211 -81.2514 193° South 329 379 26,000  Level Jacksonville Center
04:59AM 33.5317 -81.2756 193° South 329 379 26,000  Level Jacksonville Center
05:00AM 33.4444 -81.2969 192° South 334 384 26,000  Level Jacksonville Center
05:01AM 33.3550 -81.3208 193° South 334 384 26,000  Level Jacksonville Center
05:02AM 33.2675 -81.3425 192° South 334 384 26,000  Level Jacksonville Center
05:03AM 33.1781 -81.3661 192° South 334 384 26,000  Level Jacksonville Center
05:04AM 33.0908 -81.3925 194° South 334 384 26,000  Level Jacksonville Center
05:05AM 33.0033 -81.4139 192° South 334 384 26,000  Level Jacksonville Center
05:06AM 32.9158 -81.4350 191° South 329 379 26,000  Level Jacksonville Center
05:07AM 32.8286 -81.4586 193° South 329 379 26,000  Level Jacksonville Center
05:08AM 32.7433 -81.4822 193° South 324 373 26,000  Level Jacksonville Center
05:09AM 32.6578 -81.5058 193° South 313 360 26,000  Level Jacksonville Center
05:10AM 32.5642 -81.5294 192° South 318 366 26,000  Level Jacksonville Center
05:11AM 32.4789 -81.5506 192° South 318 366 26,000  Level Jacksonville Center
05:12AM 32.4039 -81.5711 193° South 318 366 26,000  Level Jacksonville Center
05:13AM 32.3103 -81.5947 192° South 321 369 26,000  Level Jacksonville Center
05:14AM 32.2311 -81.6156 193° South 316 364 26,000  Level Jacksonville Center
05:15AM 32.1375 -81.6414 193° South 316 364 26,000  Level Jacksonville Center
05:16AM 32.0519 -81.6644 193° South 316 364 26,000  Level Jacksonville Center
05:17AM 31.9728 -81.6853 193° South 316 364 26,000  Level Jacksonville Center
05:18AM 31.8792 -81.7083 192° South 316 364 26,000  Level Jacksonville Center
05:19AM 31.8000 -81.7289 192° South 316 364 26,000  Level Jacksonville Center
05:20AM 31.7042 -81.7522 192° South 316 364 26,000  Level Jacksonville Center
05:21AM 31.6147 -81.7778 194° South 323 372 26,000  Level Jacksonville Center
05:22AM 31.5375 -81.7981 193° South 323 372 26,000  Level Jacksonville Center
05:23AM 31.4397 -81.8211 191° South 330 380 26,000  Level Jacksonville Center
05:24AM 31.3564 -81.8417 192° South 337 388 26,000  Level Jacksonville Center
05:25AM 31.2644 -81.8644 192° South 337 388 26,000  Level Jacksonville Center
05:26AM 31.1689 -81.8922 194° South 332 382 26,000  Level Jacksonville Center
05:27AM 31.0894 -81.9100 191° South 324 373 26,000  Level Jacksonville Center
05:28AM 30.9917 -81.9353 192° South 331 381 26,000  Level Jacksonville Center
05:29AM 30.9042 -81.9556 191° South 331 381 26,000  Level Jacksonville Center
05:30AM 30.8164 -81.9783 193° South 331 381 26,000  Level Jacksonville Center
05:31AM 30.7269 -82.0008 192° South 331 381 26,000  Level Jacksonville Center
05:32AM 30.6414 -82.0233 193° South 331 381 26,000  Level Jacksonville Center
05:33AM 30.5519 -82.0458 192° South 331 381 26,000  Level Jacksonville Center
05:34AM 30.4642 -82.0636 190° South 331 381 26,000  Level Jacksonville Center
05:35AM 30.3789 -82.0836 191° South 326 375 26,000  Level Jacksonville Center
05:36AM 30.2933 -82.1058 193° South 326 375 26,000  Level Jacksonville Center
05:37AM 30.2058 -82.1283 193° South 321 369 26,000  Level Jacksonville Center
05:38AM 30.1225 -82.1506 193° South 316 364 26,000  Level Jacksonville Center
05:39AM 30.0347 -82.1703 191° South 316 364 26,000  Level Jacksonville Center
05:40AM 29.9514 -82.1950 194° South 316 364 26,000  Level Jacksonville Center
05:41AM 29.8658 -82.2147 191° South 316 364 26,000  Level Jacksonville Center
05:42AM 29.7764 -82.2392 193° South 316 364 26,000  Level Jacksonville Center
05:43AM 29.6867 -82.2567 190° South 321 369 26,000 -300 Level Jacksonville Center
05:44AM 29.5992 -82.2811 194° South 326 375 25,500 -1,260 Descending Jacksonville Center
05:45AM 29.5094 -82.3008 191° South 331 381 23,500 -2,040 Descending Jacksonville Center
05:46AM 29.4281 -82.3228 193° South 326 375 21,500 -2,040 Descending Jacksonville Center
05:47AM 29.3489 -82.3397 191° South 304 350 19,500 -1,980 Descending Jacksonville Center
05:48AM 29.2739 -82.3617 194° South 291 335 17,600 -2,040 Descending Jacksonville Center
05:49AM 29.1944 -82.3789 191° South 291 335 15,500 -1,860 Descending Jacksonville Center
05:50AM 29.1256 -82.3958 192° South 291 335 13,900 -1,800 Descending Jacksonville Center
05:51AM 29.0486 -82.4153 192° South 291 335 11,900 -1,440 Descending Jacksonville Center
05:52AM 28.9756 -82.4322 191° South 286 329 11,100 -420 Descending Jacksonville Center
05:53AM 28.9025 -82.4514 193° South 276 318 11,100 -60 Level Jacksonville Center
05:55AM 28.7667 -82.4833 192° South 285 328 11,000 -60 Descending Tampa TRACON
05:56AM 28.6833 -82.5000 190° South 286 329 11,000  Level Tampa TRACON
05:57AM 28.6167 -82.5167 192° South 284 327 11,000  Level Tampa TRACON
05:58AM 28.5333 -82.5333 190° South 284 327 11,000  Level Tampa TRACON
05:59AM 28.4667 -82.5500 192° South 284 327 11,000  Level Tampa TRACON
06:00AM 28.3833 -82.5667 190° South 282 325 11,000  Level Tampa TRACON
06:01AM 28.3000 -82.6000 199° South 282 325 11,000 -180 Level Tampa TRACON
06:02AM 28.2333 -82.6167 192° South 276 318 10,700 -900 Descending Tampa TRACON
06:03AM 28.1500 -82.6500 199° South 268 308 9,100 -1,560 Descending Tampa TRACON
06:04AM 28.0833 -82.6667 192° South 258 297 7,500 -1,500 Descending Tampa TRACON
06:05AM 28.0167 -82.7000 204° Southwest 252 290 6,100 -1,680 Descending Tampa TRACON
06:06AM 27.9667 -82.7167 196° South 248 285 4,400 -1,740 Descending Tampa TRACON
06:07AM 27.9000 -82.7333 192° South 201 231 2,900 -1,080 Descending Tampa TRACON
06:08AM 27.8500 -82.7500 196° South 177 204 2,300 -480 Descending Tampa TRACON
06:09AM 27.8000 -82.7500 180° South 163 188 2,000 -180 Descending Tampa TRACON
06:10AM 27.7667 -82.7500 180° South 157 181 2,000 -60 Level Tampa TRACON
06:11AM 27.7333 -82.7333 156° South 162 186 1,900  Descending Tampa TRACON
06:12AM 27.7333 -82.6667 90° East 189 217 2,000  Climbing Tampa TRACON
06:13AM 27.8000 -82.6667 360° North 199 229 1,900 -480 Descending Tampa TRACON
06:14AM 27.8500 -82.6833 344° North 146 168 1,100 -780 Descending Tampa TRACON
06:15AM 27.8833 -82.6833 360° North 128 147 500 -720 Descending Tampa TRACON